sensor_id;sensor_type;location;lat;lon;timestamp;P1;durP1;ratioP1;P2;durP2;ratioP2
21030;SDS011;61072;47.808;7.636;2023-07-13T04:10:26;3.45;;;1.33;;
21030;SDS011;61072;47.808;7.636;2023-07-13T04:12:53;3.00;;;1.20;;
21030;SDS011;61072;47.808;7.636;2023-07-13T04:15:20;8.15;;;1.42;;
21030;SDS011;61072;47.808;7.636;2023-07-13T04:17:46;1.92;;;1.35;;
21030;SDS011;61072;47.808;7.636;2023-07-13T04:20:13;2.67;;;0.90;;
21030;SDS011;61072;47.808;7.636;2023-07-13T04:22:40;4.45;;;1.00;;
21030;SDS011;61072;47.808;7.636;2023-07-13T04:25:07;4.45;;;1.23;;
21030;SDS011;61072;47.808;7.636;2023-07-13T04:27:34;8.30;;;1.60;;
21030;SDS011;61072;47.808;7.636;2023-07-13T04:30:00;3.90;;;0.90;;
21030;SDS011;61072;47.808;7.636;2023-07-13T04:32:27;5.55;;;0.98;;
21030;SDS011;61072;47.808;7.636;2023-07-13T04:34:54;2.75;;;1.40;;
21030;SDS011;61072;47.808;7.636;2023-07-13T04:37:22;4.85;;;1.20;;
21030;SDS011;61072;47.808;7.636;2023-07-13T04:39:48;3.97;;;1.20;;
21030;SDS011;61072;47.808;7.636;2023-07-13T04:42:15;3.80;;;1.02;;
21030;SDS011;61072;47.808;7.636;2023-07-13T04:44:47;5.00;;;1.10;;
21030;SDS011;61072;47.808;7.636;2023-07-13T04:47:15;3.10;;;1.00;;
21030;SDS011;61072;47.808;7.636;2023-07-13T04:49:42;4.50;;;1.00;;
21030;SDS011;61072;47.808;7.636;2023-07-13T04:52:08;4.90;;;1.48;;
21030;SDS011;61072;47.808;7.636;2023-07-13T04:54:35;3.55;;;1.05;;
21030;SDS011;61072;47.808;7.636;2023-07-13T04:57:03;5.00;;;1.00;;
21030;SDS011;61072;47.808;7.636;2023-07-13T04:59:32;3.20;;;1.00;;
21030;SDS011;61072;47.808;7.636;2023-07-13T05:01:59;2.40;;;0.90;;
21030;SDS011;61072;47.808;7.636;2023-07-13T05:04:27;4.75;;;1.15;;
21030;SDS011;61072;47.808;7.636;2023-07-13T05:06:54;5.63;;;1.35;;
21030;SDS011;61072;47.808;7.636;2023-07-13T05:09:21;3.40;;;1.20;;
21030;SDS011;61072;47.808;7.636;2023-07-13T05:11:48;2.53;;;1.30;;
21030;SDS011;61072;47.808;7.636;2023-07-13T05:14:15;5.47;;;1.85;;
21030;SDS011;61072;47.808;7.636;2023-07-13T05:16:42;8.32;;;3.50;;
21030;SDS011;61072;47.808;7.636;2023-07-13T05:19:09;6.75;;;1.77;;
21030;SDS011;61072;47.808;7.636;2023-07-13T05:21:36;3.80;;;1.05;;
21030;SDS011;61072;47.808;7.636;2023-07-13T05:24:03;3.97;;;1.40;;
21030;SDS011;61072;47.808;7.636;2023-07-13T05:26:48;3.63;;;1.60;;
21030;SDS011;61072;47.808;7.636;2023-07-13T05:29:15;7.70;;;1.50;;
21030;SDS011;61072;47.808;7.636;2023-07-13T05:31:42;7.03;;;1.33;;
21030;SDS011;61072;47.808;7.636;2023-07-13T05:34:09;3.72;;;1.20;;
21030;SDS011;61072;47.808;7.636;2023-07-13T05:36:35;2.05;;;1.00;;
21030;SDS011;61072;47.808;7.636;2023-07-13T05:39:03;4.25;;;1.08;;
21030;SDS011;61072;47.808;7.636;2023-07-13T05:41:30;4.90;;;1.23;;
21030;SDS011;61072;47.808;7.636;2023-07-13T05:43:57;5.22;;;1.35;;
21030;SDS011;61072;47.808;7.636;2023-07-13T05:46:24;3.83;;;1.35;;
21030;SDS011;61072;47.808;7.636;2023-07-13T05:48:51;5.38;;;1.30;;
21030;SDS011;61072;47.808;7.636;2023-07-13T05:51:18;4.93;;;1.23;;
21030;SDS011;61072;47.808;7.636;2023-07-13T05:53:45;5.50;;;1.40;;
21030;SDS011;61072;47.808;7.636;2023-07-13T05:56:11;4.85;;;1.13;;
21030;SDS011;61072;47.808;7.636;2023-07-13T05:58:38;4.22;;;1.30;;
21030;SDS011;61072;47.808;7.636;2023-07-13T06:01:06;5.75;;;2.20;;
21030;SDS011;61072;47.808;7.636;2023-07-13T06:03:36;2.10;;;1.20;;
21030;SDS011;61072;47.808;7.636;2023-07-13T06:06:07;9.93;;;1.85;;
21030;SDS011;61072;47.808;7.636;2023-07-13T06:08:35;7.18;;;1.90;;
21030;SDS011;61072;47.808;7.636;2023-07-13T06:11:07;7.65;;;2.72;;
21030;SDS011;61072;47.808;7.636;2023-07-13T06:13:39;6.85;;;1.50;;
21030;SDS011;61072;47.808;7.636;2023-07-13T06:16:05;4.68;;;1.60;;
21030;SDS011;61072;47.808;7.636;2023-07-13T06:18:33;5.22;;;1.60;;
21030;SDS011;61072;47.808;7.636;2023-07-13T06:21:05;5.40;;;1.60;;
21030;SDS011;61072;47.808;7.636;2023-07-13T06:23:49;5.35;;;1.50;;
21030;SDS011;61072;47.808;7.636;2023-07-13T06:26:17;5.55;;;1.38;;
21030;SDS011;61072;47.808;7.636;2023-07-13T06:28:45;5.10;;;1.25;;
21030;SDS011;61072;47.808;7.636;2023-07-13T06:31:13;5.35;;;1.17;;
21030;SDS011;61072;47.808;7.636;2023-07-13T06:33:41;4.57;;;1.27;;
21030;SDS011;61072;47.808;7.636;2023-07-13T06:36:10;1.98;;;1.15;;
21030;SDS011;61072;47.808;7.636;2023-07-13T06:38:37;3.28;;;1.20;;
21030;SDS011;61072;47.808;7.636;2023-07-13T06:41:05;3.15;;;1.52;;
21030;SDS011;61072;47.808;7.636;2023-07-13T06:43:32;4.18;;;1.55;;
21030;SDS011;61072;47.808;7.636;2023-07-13T06:45:59;10.38;;;2.63;;
21030;SDS011;61072;47.808;7.636;2023-07-13T06:48:27;4.93;;;2.22;;
21030;SDS011;61072;47.808;7.636;2023-07-13T06:50:54;5.55;;;1.67;;
21030;SDS011;61072;47.808;7.636;2023-07-13T06:53:21;6.50;;;1.95;;
21030;SDS011;61072;47.808;7.636;2023-07-13T06:55:49;4.82;;;1.50;;
21030;SDS011;61072;47.808;7.636;2023-07-13T06:58:16;6.13;;;2.05;;
21030;SDS011;61072;47.808;7.636;2023-07-13T07:00:44;2.10;;;1.30;;
21030;SDS011;61072;47.808;7.636;2023-07-13T07:03:11;5.18;;;2.22;;
21030;SDS011;61072;47.808;7.636;2023-07-13T07:05:38;8.25;;;1.88;;
21030;SDS011;61072;47.808;7.636;2023-07-13T07:08:05;3.25;;;1.35;;
21030;SDS011;61072;47.808;7.636;2023-07-13T07:10:32;9.50;;;1.90;;
21030;SDS011;61072;47.808;7.636;2023-07-13T07:13:00;6.63;;;1.45;;
21030;SDS011;61072;47.808;7.636;2023-07-13T07:15:26;3.53;;;1.30;;
21030;SDS011;61072;47.808;7.636;2023-07-13T07:17:53;3.80;;;1.30;;
21030;SDS011;61072;47.808;7.636;2023-07-13T07:20:20;3.67;;;1.80;;
21030;SDS011;61072;47.808;7.636;2023-07-13T07:22:47;2.70;;;1.10;;
21030;SDS011;61072;47.808;7.636;2023-07-13T07:25:15;5.15;;;1.33;;
21030;SDS011;61072;47.808;7.636;2023-07-13T07:27:41;3.72;;;1.33;;
21030;SDS011;61072;47.808;7.636;2023-07-13T07:30:11;5.00;;;1.30;;
21030;SDS011;61072;47.808;7.636;2023-07-13T07:35:22;7.85;;;1.25;;
21030;SDS011;61072;47.808;7.636;2023-07-13T07:37:49;6.22;;;0.98;;
21030;SDS011;61072;47.808;7.636;2023-07-13T07:40:17;5.63;;;1.40;;
21030;SDS011;61072;47.808;7.636;2023-07-13T07:42:47;6.82;;;1.75;;
21030;SDS011;61072;47.808;7.636;2023-07-13T07:45:14;4.13;;;1.50;;
21030;SDS011;61072;47.808;7.636;2023-07-13T07:47:40;7.90;;;1.58;;
21030;SDS011;61072;47.808;7.636;2023-07-13T07:50:08;2.83;;;1.05;;
21030;SDS011;61072;47.808;7.636;2023-07-13T07:52:35;1.95;;;1.05;;
21030;SDS011;61072;47.808;7.636;2023-07-13T07:55:03;9.93;;;2.28;;
21030;SDS011;61072;47.808;7.636;2023-07-13T07:57:34;6.90;;;1.20;;
21030;SDS011;61072;47.808;7.636;2023-07-13T08:00:03;1.77;;;0.90;;
21030;SDS011;61072;47.808;7.636;2023-07-13T08:02:34;4.60;;;1.50;;
21030;SDS011;61072;47.808;7.636;2023-07-13T08:05:03;7.10;;;1.02;;
21030;SDS011;61072;47.808;7.636;2023-07-13T08:07:33;4.43;;;1.27;;
21030;SDS011;61072;47.808;7.636;2023-07-13T08:10:00;4.85;;;1.20;;
21030;SDS011;61072;47.808;7.636;2023-07-13T08:12:27;4.30;;;1.27;;
21030;SDS011;61072;47.808;7.636;2023-07-13T08:14:57;3.22;;;0.88;;
21030;SDS011;61072;47.808;7.636;2023-07-13T08:17:24;6.38;;;1.20;;
21030;SDS011;61072;47.808;7.636;2023-07-13T08:19:51;5.47;;;1.20;;
21030;SDS011;61072;47.808;7.636;2023-07-13T08:22:18;5.55;;;1.05;;
21030;SDS011;61072;47.808;7.636;2023-07-13T08:24:45;10.40;;;1.40;;
21030;SDS011;61072;47.808;7.636;2023-07-13T08:27:13;7.32;;;1.58;;
21030;SDS011;61072;47.808;7.636;2023-07-13T08:29:40;3.78;;;1.17;;
21030;SDS011;61072;47.808;7.636;2023-07-13T08:32:07;8.50;;;1.20;;
21030;SDS011;61072;47.808;7.636;2023-07-13T08:34:36;1.92;;;1.00;;
21030;SDS011;61072;47.808;7.636;2023-07-13T08:37:03;6.05;;;1.13;;
21030;SDS011;61072;47.808;7.636;2023-07-13T08:39:30;3.20;;;1.10;;
21030;SDS011;61072;47.808;7.636;2023-07-13T08:41:59;4.75;;;1.45;;
21030;SDS011;61072;47.808;7.636;2023-07-13T08:47:35;4.80;;;1.42;;
21030;SDS011;61072;47.808;7.636;2023-07-13T08:50:05;6.55;;;1.30;;
21030;SDS011;61072;47.808;7.636;2023-07-13T08:52:39;10.25;;;1.42;;
21030;SDS011;61072;47.808;7.636;2023-07-13T08:55:20;10.10;;;1.50;;
21030;SDS011;61072;47.808;7.636;2023-07-13T08:57:52;4.30;;;1.30;;
21030;SDS011;61072;47.808;7.636;2023-07-13T09:00:22;2.92;;;1.08;;
21030;SDS011;61072;47.808;7.636;2023-07-13T09:02:56;3.08;;;1.13;;
21030;SDS011;61072;47.808;7.636;2023-07-13T09:05:26;6.65;;;1.25;;
21030;SDS011;61072;47.808;7.636;2023-07-13T09:10:28;3.05;;;1.02;;
21030;SDS011;61072;47.808;7.636;2023-07-13T09:13:07;5.82;;;1.15;;
21030;SDS011;61072;47.808;7.636;2023-07-13T09:16:03;4.18;;;0.90;;
21030;SDS011;61072;47.808;7.636;2023-07-13T09:18:35;4.40;;;0.88;;
21030;SDS011;61072;47.808;7.636;2023-07-13T09:23:36;3.78;;;0.70;;
21030;SDS011;61072;47.808;7.636;2023-07-13T09:28:41;7.53;;;0.90;;
21030;SDS011;61072;47.808;7.636;2023-07-13T09:33:39;2.15;;;0.80;;
21030;SDS011;61072;47.808;7.636;2023-07-13T09:36:16;3.47;;;0.85;;
21030;SDS011;61072;47.808;7.636;2023-07-13T09:38:54;6.05;;;0.73;;
21030;SDS011;61072;47.808;7.636;2023-07-13T09:41:47;3.03;;;0.80;;
21030;SDS011;61072;47.808;7.636;2023-07-13T09:44:55;1.42;;;0.65;;
21030;SDS011;61072;47.808;7.636;2023-07-13T09:47:27;1.58;;;0.70;;
21030;SDS011;61072;47.808;7.636;2023-07-13T09:49:59;3.95;;;0.65;;
21030;SDS011;61072;47.808;7.636;2023-07-13T09:55:32;3.10;;;1.00;;
21030;SDS011;61072;47.808;7.636;2023-07-13T09:58:06;3.03;;;1.02;;
21030;SDS011;61072;47.808;7.636;2023-07-13T10:00:37;3.70;;;0.90;;
21030;SDS011;61072;47.808;7.636;2023-07-13T10:05:48;4.65;;;0.70;;
21030;SDS011;61072;47.808;7.636;2023-07-13T10:08:29;1.58;;;0.70;;
21030;SDS011;61072;47.808;7.636;2023-07-13T10:11:12;1.88;;;0.70;;
21030;SDS011;61072;47.808;7.636;2023-07-13T10:13:45;2.85;;;0.80;;
21030;SDS011;61072;47.808;7.636;2023-07-13T10:16:23;2.50;;;0.95;;
21030;SDS011;61072;47.808;7.636;2023-07-13T10:19:02;2.08;;;0.70;;
21030;SDS011;61072;47.808;7.636;2023-07-13T10:21:33;2.85;;;0.80;;
21030;SDS011;61072;47.808;7.636;2023-07-13T10:24:04;2.80;;;0.80;;
21030;SDS011;61072;47.808;7.636;2023-07-13T10:26:39;4.47;;;0.70;;
21030;SDS011;61072;47.808;7.636;2023-07-13T10:29:14;3.10;;;0.57;;
21030;SDS011;61072;47.808;7.636;2023-07-13T10:31:44;2.20;;;0.70;;
21030;SDS011;61072;47.808;7.636;2023-07-13T10:34:11;2.97;;;0.63;;
21030;SDS011;61072;47.808;7.636;2023-07-13T10:36:43;4.40;;;0.60;;
21030;SDS011;61072;47.808;7.636;2023-07-13T10:39:16;2.55;;;0.80;;
21030;SDS011;61072;47.808;7.636;2023-07-13T10:41:47;1.17;;;0.65;;
21030;SDS011;61072;47.808;7.636;2023-07-13T10:44:25;3.83;;;0.88;;
21030;SDS011;61072;47.808;7.636;2023-07-13T10:46:55;2.30;;;0.90;;
21030;SDS011;61072;47.808;7.636;2023-07-13T10:49:26;3.45;;;1.02;;
21030;SDS011;61072;47.808;7.636;2023-07-13T10:51:55;5.40;;;0.57;;
21030;SDS011;61072;47.808;7.636;2023-07-13T10:54:26;1.70;;;0.70;;
21030;SDS011;61072;47.808;7.636;2023-07-13T10:59:47;2.90;;;0.47;;
21030;SDS011;61072;47.808;7.636;2023-07-13T11:02:34;3.20;;;0.70;;
21030;SDS011;61072;47.808;7.636;2023-07-13T11:05:13;1.80;;;0.50;;
21030;SDS011;61072;47.808;7.636;2023-07-13T11:07:55;2.25;;;0.60;;
21030;SDS011;61072;47.808;7.636;2023-07-13T11:19:07;3.67;;;0.77;;
21030;SDS011;61072;47.808;7.636;2023-07-13T11:30:39;1.85;;;0.65;;
21030;SDS011;61072;47.808;7.636;2023-07-13T11:33:19;3.80;;;0.70;;
21030;SDS011;61072;47.808;7.636;2023-07-13T11:36:14;1.15;;;0.70;;
21030;SDS011;61072;47.808;7.636;2023-07-13T11:39:02;1.38;;;0.70;;
21030;SDS011;61072;47.808;7.636;2023-07-13T11:41:54;4.13;;;1.05;;
21030;SDS011;61072;47.808;7.636;2023-07-13T11:44:48;2.03;;;0.85;;
21030;SDS011;61072;47.808;7.636;2023-07-13T11:47:35;2.70;;;0.73;;
21030;SDS011;61072;47.808;7.636;2023-07-13T11:50:16;3.97;;;0.85;;
21030;SDS011;61072;47.808;7.636;2023-07-13T11:52:45;2.60;;;0.90;;
21030;SDS011;61072;47.808;7.636;2023-07-13T11:55:16;2.70;;;0.85;;
21030;SDS011;61072;47.808;7.636;2023-07-13T11:57:45;4.20;;;0.68;;
21030;SDS011;61072;47.808;7.636;2023-07-13T12:00:21;2.60;;;0.82;;
21030;SDS011;61072;47.808;7.636;2023-07-13T12:02:53;5.00;;;1.48;;
21030;SDS011;61072;47.808;7.636;2023-07-13T12:05:23;2.03;;;0.68;;
21030;SDS011;61072;47.808;7.636;2023-07-13T12:07:51;4.28;;;0.73;;
21030;SDS011;61072;47.808;7.636;2023-07-13T12:15:50;3.60;;;0.85;;
21030;SDS011;61072;47.808;7.636;2023-07-13T12:18:21;2.53;;;0.98;;
21030;SDS011;61072;47.808;7.636;2023-07-13T12:20:53;1.58;;;0.60;;
21030;SDS011;61072;47.808;7.636;2023-07-13T12:25:51;3.15;;;0.85;;
21030;SDS011;61072;47.808;7.636;2023-07-13T12:28:23;2.65;;;0.70;;
21030;SDS011;61072;47.808;7.636;2023-07-13T12:30:58;2.78;;;0.70;;
21030;SDS011;61072;47.808;7.636;2023-07-13T12:33:30;3.63;;;1.00;;
21030;SDS011;61072;47.808;7.636;2023-07-13T12:36:02;5.45;;;0.68;;
21030;SDS011;61072;47.808;7.636;2023-07-13T12:38:32;3.65;;;0.90;;
21030;SDS011;61072;47.808;7.636;2023-07-13T12:40:59;3.50;;;1.08;;
21030;SDS011;61072;47.808;7.636;2023-07-13T12:43:31;3.15;;;0.88;;
21030;SDS011;61072;47.808;7.636;2023-07-13T12:48:42;2.13;;;0.70;;
21030;SDS011;61072;47.808;7.636;2023-07-13T12:51:26;7.97;;;0.80;;
21030;SDS011;61072;47.808;7.636;2023-07-13T12:53:57;4.43;;;0.95;;
21030;SDS011;61072;47.808;7.636;2023-07-13T12:56:32;2.47;;;0.70;;
21030;SDS011;61072;47.808;7.636;2023-07-13T12:59:01;2.47;;;1.00;;
21030;SDS011;61072;47.808;7.636;2023-07-13T13:01:31;5.60;;;0.82;;
21030;SDS011;61072;47.808;7.636;2023-07-13T13:04:01;5.45;;;1.05;;
21030;SDS011;61072;47.808;7.636;2023-07-13T13:06:35;3.85;;;0.80;;
21030;SDS011;61072;47.808;7.636;2023-07-13T13:09:02;2.30;;;1.00;;
21030;SDS011;61072;47.808;7.636;2023-07-13T13:11:31;3.97;;;1.23;;
21030;SDS011;61072;47.808;7.636;2023-07-13T13:13:58;1.23;;;0.95;;
21030;SDS011;61072;47.808;7.636;2023-07-13T13:18:55;4.50;;;0.82;;
21030;SDS011;61072;47.808;7.636;2023-07-13T13:21:25;2.00;;;0.77;;
21030;SDS011;61072;47.808;7.636;2023-07-13T13:23:52;4.57;;;1.08;;
21030;SDS011;61072;47.808;7.636;2023-07-13T13:26:20;1.60;;;1.02;;
21030;SDS011;61072;47.808;7.636;2023-07-13T13:28:48;1.27;;;0.80;;
21030;SDS011;61072;47.808;7.636;2023-07-13T13:31:15;5.25;;;0.90;;
21030;SDS011;61072;47.808;7.636;2023-07-13T13:33:43;3.70;;;1.08;;
21030;SDS011;61072;47.808;7.636;2023-07-13T13:36:13;1.75;;;0.88;;
21030;SDS011;61072;47.808;7.636;2023-07-13T13:38:43;3.30;;;0.90;;
21030;SDS011;61072;47.808;7.636;2023-07-13T13:41:11;3.97;;;0.98;;
21030;SDS011;61072;47.808;7.636;2023-07-13T13:43:40;2.67;;;0.70;;
21030;SDS011;61072;47.808;7.636;2023-07-13T13:46:17;1.58;;;0.80;;
21030;SDS011;61072;47.808;7.636;2023-07-13T13:48:47;1.70;;;0.90;;
21030;SDS011;61072;47.808;7.636;2023-07-13T13:51:16;1.83;;;0.80;;
21030;SDS011;61072;47.808;7.636;2023-07-13T13:53:45;4.40;;;0.73;;
21030;SDS011;61072;47.808;7.636;2023-07-13T13:56:13;0.85;;;0.47;;
21030;SDS011;61072;47.808;7.636;2023-07-13T13:58:40;2.30;;;1.05;;
21030;SDS011;61072;47.808;7.636;2023-07-13T14:01:15;4.65;;;0.70;;
21030;SDS011;61072;47.808;7.636;2023-07-13T14:03:44;4.63;;;0.90;;
21030;SDS011;61072;47.808;7.636;2023-07-13T14:06:12;2.40;;;0.80;;
21030;SDS011;61072;47.808;7.636;2023-07-13T14:08:40;2.63;;;0.70;;
21030;SDS011;61072;47.808;7.636;2023-07-13T14:11:10;4.32;;;1.05;;
21030;SDS011;61072;47.808;7.636;2023-07-13T14:13:43;2.10;;;1.10;;
21030;SDS011;61072;47.808;7.636;2023-07-13T14:16:17;3.40;;;0.88;;
21030;SDS011;61072;47.808;7.636;2023-07-13T14:18:47;2.33;;;0.82;;
21030;SDS011;61072;47.808;7.636;2023-07-13T14:21:15;2.78;;;0.80;;
21030;SDS011;61072;47.808;7.636;2023-07-13T14:23:44;4.03;;;0.82;;
21030;SDS011;61072;47.808;7.636;2023-07-13T14:26:13;3.67;;;0.93;;
21030;SDS011;61072;47.808;7.636;2023-07-13T14:28:45;2.22;;;0.70;;
21030;SDS011;61072;47.808;7.636;2023-07-13T14:31:15;2.55;;;0.90;;
21030;SDS011;61072;47.808;7.636;2023-07-13T14:33:43;2.92;;;1.20;;
21030;SDS011;61072;47.808;7.636;2023-07-13T14:36:25;1.45;;;0.77;;
21030;SDS011;61072;47.808;7.636;2023-07-13T14:38:57;4.45;;;1.30;;
21030;SDS011;61072;47.808;7.636;2023-07-13T14:41:25;6.20;;;1.00;;
21030;SDS011;61072;47.808;7.636;2023-07-13T14:43:52;6.50;;;0.93;;
21030;SDS011;61072;47.808;7.636;2023-07-13T14:46:31;4.85;;;1.02;;
21030;SDS011;61072;47.808;7.636;2023-07-13T14:49:05;3.47;;;0.88;;
21030;SDS011;61072;47.808;7.636;2023-07-13T14:51:38;5.18;;;0.93;;
21030;SDS011;61072;47.808;7.636;2023-07-13T14:54:05;3.13;;;1.00;;
21030;SDS011;61072;47.808;7.636;2023-07-13T14:56:35;1.65;;;0.80;;
21030;SDS011;61072;47.808;7.636;2023-07-13T14:59:01;1.92;;;0.80;;
21030;SDS011;61072;47.808;7.636;2023-07-13T15:01:28;1.50;;;0.90;;
21030;SDS011;61072;47.808;7.636;2023-07-13T15:03:57;3.80;;;0.90;;
21030;SDS011;61072;47.808;7.636;2023-07-13T15:06:25;2.40;;;1.25;;
21030;SDS011;61072;47.808;7.636;2023-07-13T15:08:51;7.70;;;1.65;;
21030;SDS011;61072;47.808;7.636;2023-07-13T15:11:18;4.38;;;0.98;;
21030;SDS011;61072;47.808;7.636;2023-07-13T15:13:45;4.40;;;1.00;;
21030;SDS011;61072;47.808;7.636;2023-07-13T15:16:18;2.03;;;1.20;;
21030;SDS011;61072;47.808;7.636;2023-07-13T15:18:48;2.63;;;1.00;;
21030;SDS011;61072;47.808;7.636;2023-07-13T15:21:22;2.47;;;1.02;;
21030;SDS011;61072;47.808;7.636;2023-07-13T15:23:50;1.90;;;0.80;;
21030;SDS011;61072;47.808;7.636;2023-07-13T15:26:18;1.75;;;0.70;;
21030;SDS011;61072;47.808;7.636;2023-07-13T15:28:46;2.85;;;1.00;;
21030;SDS011;61072;47.808;7.636;2023-07-13T15:31:17;2.05;;;1.00;;
21030;SDS011;61072;47.808;7.636;2023-07-13T15:33:51;1.60;;;0.80;;
21030;SDS011;61072;47.808;7.636;2023-07-13T15:36:19;2.10;;;0.90;;
21030;SDS011;61072;47.808;7.636;2023-07-13T15:38:48;3.97;;;0.95;;
21030;SDS011;61072;47.808;7.636;2023-07-13T15:43:44;5.00;;;0.75;;
21030;SDS011;61072;47.808;7.636;2023-07-13T15:46:12;4.72;;;1.02;;
21030;SDS011;61072;47.808;7.636;2023-07-13T15:48:39;1.65;;;0.80;;
21030;SDS011;61072;47.808;7.636;2023-07-13T15:51:17;2.65;;;1.02;;
21030;SDS011;61072;47.808;7.636;2023-07-13T15:53:55;4.72;;;1.38;;
21030;SDS011;61072;47.808;7.636;2023-07-13T15:56:26;1.13;;;0.85;;
21030;SDS011;61072;47.808;7.636;2023-07-13T15:58:54;3.90;;;0.90;;
21030;SDS011;61072;47.808;7.636;2023-07-13T16:01:23;2.55;;;0.70;;
21030;SDS011;61072;47.808;7.636;2023-07-13T16:03:50;3.15;;;0.82;;
21030;SDS011;61072;47.808;7.636;2023-07-13T16:06:20;3.53;;;0.80;;
21030;SDS011;61072;47.808;7.636;2023-07-13T16:08:51;3.47;;;0.70;;
21030;SDS011;61072;47.808;7.636;2023-07-13T16:11:22;2.55;;;0.80;;
21030;SDS011;61072;47.808;7.636;2023-07-13T16:13:58;4.60;;;0.98;;
21030;SDS011;61072;47.808;7.636;2023-07-13T16:16:27;3.47;;;0.90;;
21030;SDS011;61072;47.808;7.636;2023-07-13T16:18:59;1.52;;;0.77;;
21030;SDS011;61072;47.808;7.636;2023-07-13T16:23:55;4.82;;;0.88;;
21030;SDS011;61072;47.808;7.636;2023-07-13T16:26:32;1.23;;;0.70;;
21030;SDS011;61072;47.808;7.636;2023-07-13T16:29:13;2.47;;;0.90;;
21030;SDS011;61072;47.808;7.636;2023-07-13T16:32:02;2.03;;;0.85;;
21030;SDS011;61072;47.808;7.636;2023-07-13T16:34:40;2.88;;;0.70;;
21030;SDS011;61072;47.808;7.636;2023-07-13T16:37:15;3.22;;;0.88;;
21030;SDS011;61072;47.808;7.636;2023-07-13T16:39:46;3.10;;;0.77;;
21030;SDS011;61072;47.808;7.636;2023-07-13T16:42:15;2.55;;;0.80;;
21030;SDS011;61072;47.808;7.636;2023-07-13T16:44:42;3.28;;;0.90;;
21030;SDS011;61072;47.808;7.636;2023-07-13T16:47:12;5.10;;;0.90;;
21030;SDS011;61072;47.808;7.636;2023-07-13T16:49:41;3.47;;;1.00;;
21030;SDS011;61072;47.808;7.636;2023-07-13T16:52:12;2.50;;;0.90;;
21030;SDS011;61072;47.808;7.636;2023-07-13T16:54:41;2.38;;;1.00;;
21030;SDS011;61072;47.808;7.636;2023-07-13T16:57:18;3.17;;;0.80;;
21030;SDS011;61072;47.808;7.636;2023-07-13T16:59:48;4.35;;;0.65;;
21030;SDS011;61072;47.808;7.636;2023-07-13T17:04:55;1.63;;;0.88;;
21030;SDS011;61072;47.808;7.636;2023-07-13T17:07:22;2.22;;;0.80;;
21030;SDS011;61072;47.808;7.636;2023-07-13T17:09:49;4.03;;;1.02;;
21030;SDS011;61072;47.808;7.636;2023-07-13T17:12:18;1.23;;;0.80;;
21030;SDS011;61072;47.808;7.636;2023-07-13T17:14:48;3.13;;;1.27;;
21030;SDS011;61072;47.808;7.636;2023-07-13T17:17:15;3.13;;;0.98;;
21030;SDS011;61072;47.808;7.636;2023-07-13T17:20:20;2.70;;;0.98;;
21030;SDS011;61072;47.808;7.636;2023-07-13T17:22:50;3.20;;;0.90;;
21030;SDS011;61072;47.808;7.636;2023-07-13T17:25:18;4.25;;;0.80;;
21030;SDS011;61072;47.808;7.636;2023-07-13T17:27:47;4.07;;;0.90;;
21030;SDS011;61072;47.808;7.636;2023-07-13T17:30:21;5.82;;;0.95;;
21030;SDS011;61072;47.808;7.636;2023-07-13T17:32:49;6.13;;;0.70;;
21030;SDS011;61072;47.808;7.636;2023-07-13T17:35:25;2.25;;;1.00;;
21030;SDS011;61072;47.808;7.636;2023-07-13T17:37:54;1.58;;;0.90;;
21030;SDS011;61072;47.808;7.636;2023-07-13T17:40:23;3.00;;;1.35;;
21030;SDS011;61072;47.808;7.636;2023-07-13T17:42:50;4.95;;;1.20;;
21030;SDS011;61072;47.808;7.636;2023-07-13T17:45:23;2.55;;;0.93;;
21030;SDS011;61072;47.808;7.636;2023-07-13T17:47:53;4.40;;;1.30;;
21030;SDS011;61072;47.808;7.636;2023-07-13T17:50:24;7.43;;;0.90;;
21030;SDS011;61072;47.808;7.636;2023-07-13T17:53:12;4.57;;;1.05;;
21030;SDS011;61072;47.808;7.636;2023-07-13T17:55:41;2.17;;;0.77;;
21030;SDS011;61072;47.808;7.636;2023-07-13T17:58:08;3.00;;;1.08;;
21030;SDS011;61072;47.808;7.636;2023-07-13T18:00:36;3.92;;;1.15;;
21030;SDS011;61072;47.808;7.636;2023-07-13T18:03:13;4.35;;;1.15;;
21030;SDS011;61072;47.808;7.636;2023-07-13T18:05:45;2.78;;;1.40;;
21030;SDS011;61072;47.808;7.636;2023-07-13T18:10:53;3.13;;;1.27;;
21030;SDS011;61072;47.808;7.636;2023-07-13T18:13:21;3.25;;;1.10;;
21030;SDS011;61072;47.808;7.636;2023-07-13T18:15:48;2.38;;;0.85;;
21030;SDS011;61072;47.808;7.636;2023-07-13T18:18:18;2.78;;;1.10;;
21030;SDS011;61072;47.808;7.636;2023-07-13T18:20:46;3.95;;;0.95;;
21030;SDS011;61072;47.808;7.636;2023-07-13T18:23:18;4.60;;;1.70;;
21030;SDS011;61072;47.808;7.636;2023-07-13T18:25:47;3.53;;;1.25;;
21030;SDS011;61072;47.808;7.636;2023-07-13T18:28:15;6.95;;;1.23;;
21030;SDS011;61072;47.808;7.636;2023-07-13T18:30:44;3.03;;;0.93;;
21030;SDS011;61072;47.808;7.636;2023-07-13T18:33:24;1.38;;;0.80;;
21030;SDS011;61072;47.808;7.636;2023-07-13T18:35:52;1.63;;;0.75;;
21030;SDS011;61072;47.808;7.636;2023-07-13T18:38:22;1.77;;;0.80;;
21030;SDS011;61072;47.808;7.636;2023-07-13T18:40:53;3.70;;;1.25;;
21030;SDS011;61072;47.808;7.636;2023-07-13T18:43:21;2.33;;;1.02;;
21030;SDS011;61072;47.808;7.636;2023-07-13T18:45:54;6.53;;;0.98;;
21030;SDS011;61072;47.808;7.636;2023-07-13T18:48:23;4.15;;;1.10;;
21030;SDS011;61072;47.808;7.636;2023-07-13T18:50:52;4.53;;;1.05;;
21030;SDS011;61072;47.808;7.636;2023-07-13T18:53:21;4.13;;;1.17;;
21030;SDS011;61072;47.808;7.636;2023-07-13T18:55:48;1.35;;;0.90;;
21030;SDS011;61072;47.808;7.636;2023-07-13T18:58:15;6.57;;;1.27;;
21030;SDS011;61072;47.808;7.636;2023-07-13T19:00:45;4.25;;;1.00;;
21030;SDS011;61072;47.808;7.636;2023-07-13T19:05:44;7.32;;;1.30;;
21030;SDS011;61072;47.808;7.636;2023-07-13T19:08:25;2.20;;;1.17;;
21030;SDS011;61072;47.808;7.636;2023-07-13T19:10:52;4.80;;;1.92;;
21030;SDS011;61072;47.808;7.636;2023-07-13T19:13:23;3.45;;;1.42;;
21030;SDS011;61072;47.808;7.636;2023-07-13T19:15:52;5.88;;;1.15;;
21030;SDS011;61072;47.808;7.636;2023-07-13T19:18:19;4.40;;;1.60;;
21030;SDS011;61072;47.808;7.636;2023-07-13T19:20:48;4.32;;;1.30;;
21030;SDS011;61072;47.808;7.636;2023-07-13T19:25:52;1.73;;;0.90;;
21030;SDS011;61072;47.808;7.636;2023-07-13T19:28:24;2.50;;;1.17;;
21030;SDS011;61072;47.808;7.636;2023-07-13T19:31:12;2.70;;;1.33;;
21030;SDS011;61072;47.808;7.636;2023-07-13T19:33:46;3.92;;;1.40;;
21030;SDS011;61072;47.808;7.636;2023-07-13T19:36:14;5.65;;;1.50;;
21030;SDS011;61072;47.808;7.636;2023-07-13T19:38:44;2.60;;;1.13;;
21030;SDS011;61072;47.808;7.636;2023-07-13T19:41:14;3.45;;;1.30;;
21030;SDS011;61072;47.808;7.636;2023-07-13T19:43:42;4.63;;;1.58;;
21030;SDS011;61072;47.808;7.636;2023-07-13T19:48:58;4.00;;;1.30;;
21030;SDS011;61072;47.808;7.636;2023-07-13T19:51:28;4.47;;;1.20;;
21030;SDS011;61072;47.808;7.636;2023-07-13T19:54:10;2.65;;;1.15;;
21030;SDS011;61072;47.808;7.636;2023-07-13T19:56:39;3.72;;;1.17;;
21030;SDS011;61072;47.808;7.636;2023-07-13T20:01:48;4.47;;;1.38;;
21030;SDS011;61072;47.808;7.636;2023-07-13T20:04:15;2.30;;;1.10;;
